LTCJ

Details ICAO LTCJ (BAL)
Name BATMAN
Region Turkey
Timezone Europe/Istanbul (UTC+3.0)
Plans Departing 15
Arriving 20
Stats Elevation 1,822 ft / 555 m (AMSL)
Location 37.928970° 41.116585°
Runways 1
Magnetic Variation 5.652° E
Sunrise 2017-12-12 04:23:22 UTC / 2017-12-12 07:23:22 Local
Sunset 2017-12-12 13:57:55 UTC / 2017-12-12 16:57:55 Local
Advertisement - Login to hide

Runways

ID Width Length Bearing (true) Bearing (mag) Surface Threshold Offset Overrun Length
02 150 ft / 46 m 10,018 ft / 3,054 m 25.56° 19.91° Asphalt 0 ft / 0 m 495 ft / 151 m
20 150 ft / 46 m 10,018 ft / 3,054 m 205.57° 199.92° Asphalt 0 ft / 0 m 495 ft / 151 m

Map

Weather


0- 5 10 15 20 25 30 35+ Temperature / ° C

Clouds and Precipitation
Forecast for 2017-12-12 18:00 UTC. Updated an hour ago

Ground ~20,000 ft ~40,000 ft Winds

METAR

LTCJ 121750Z 04007KT CAVOK 01/M02 Q1025

TAF

Not found

Frequencies

Ground 121.95 MHz GND
Approach 122.10 MHz DIYARBAKIR APP
Tower 122.10 MHz TWR
Warning: Do not use this data for real-world aviation or navigation. No guarantee of current accuracy is given.